createdAt,value
2022-11-27T00:00:55.148Z,76.48
2022-11-27T00:01:56.563Z,76.49
2022-11-27T00:02:58.501Z,75.78
2022-11-27T00:04:00.338Z,75.97
2022-11-27T00:05:01.903Z,76.49
2022-11-27T00:06:03.572Z,76.61
2022-11-27T00:07:05.021Z,76.32
2022-11-27T00:08:06.910Z,76.36
2022-11-27T00:09:13.532Z,76.59
2022-11-27T00:10:15.013Z,76.27
2022-11-27T00:11:20.639Z,76.33
2022-11-27T00:12:22.106Z,76.42
2022-11-27T00:13:23.913Z,75.98
2022-11-27T00:14:25.443Z,75.25
2022-11-27T00:15:26.989Z,76.31
2022-11-27T00:16:28.729Z,75.45
2022-11-27T00:17:30.615Z,76.81
2022-11-27T00:18:32.743Z,77.75
2022-11-27T00:19:34.202Z,77.18
2022-11-27T00:20:35.909Z,77.52
2022-11-27T00:21:38.673Z,77.56
2022-11-27T00:22:40.496Z,75.95
2022-11-27T00:23:42.323Z,76.82
2022-11-27T00:24:44.223Z,76.60
2022-11-27T00:25:52.731Z,76.39
2022-11-27T00:26:54.269Z,76.50
2022-11-27T00:27:56.223Z,76.28
2022-11-27T00:28:57.689Z,76.23
2022-11-27T00:29:59.136Z,76.35
2022-11-27T00:31:02.749Z,76.85
2022-11-27T00:32:06.521Z,76.41
2022-11-27T00:33:08.258Z,76.22
2022-11-27T00:34:10.827Z,75.79
2022-11-27T00:35:12.286Z,76.50
2022-11-27T00:36:14.930Z,76.25
2022-11-27T00:37:16.384Z,76.55
2022-11-27T00:38:18.141Z,75.88
2022-11-27T00:39:19.760Z,75.80
2022-11-27T00:40:21.212Z,75.69
2022-11-27T00:41:25.796Z,76.07
2022-11-27T00:42:27.654Z,75.89
2022-11-27T00:43:29.093Z,76.55
2022-11-27T00:44:30.670Z,75.81
2022-11-27T00:45:32.105Z,76.40
2022-11-27T00:46:35.289Z,75.91
2022-11-27T00:47:37.106Z,76.14
2022-11-27T00:48:38.656Z,75.70
2022-11-27T00:49:40.097Z,75.80
2022-11-27T00:50:41.539Z,75.65
2022-11-27T00:51:43.626Z,76.11
2022-11-27T00:52:45.391Z,75.48
2022-11-27T00:53:47.363Z,75.88
2022-11-27T00:54:48.768Z,75.88
2022-11-27T00:55:50.220Z,76.12
2022-11-27T00:56:51.686Z,76.17
2022-11-27T00:57:53.146Z,75.48
2022-11-27T00:58:55.122Z,75.58
2022-11-27T00:59:56.642Z,75.55
2022-11-27T01:01:04.258Z,76.01
2022-11-27T01:02:06.078Z,75.72
2022-11-27T01:03:07.647Z,76.58
2022-11-27T01:04:13.110Z,75.75
2022-11-27T01:05:14.592Z,76.26
2022-11-27T01:06:18.182Z,76.07
2022-11-27T01:07:20.113Z,75.80
2022-11-27T01:08:22.300Z,75.87
2022-11-27T01:09:23.769Z,76.17
2022-11-27T01:10:25.184Z,75.94
2022-11-27T01:11:29.580Z,75.68
2022-11-27T01:12:31.023Z,75.92
2022-11-27T01:13:35.766Z,75.92
2022-11-27T01:14:38.308Z,75.96
2022-11-27T01:15:40.024Z,76.03
2022-11-27T01:16:43.298Z,75.96
2022-11-27T01:17:44.883Z,75.65
2022-11-27T01:18:48.280Z,76.25
2022-11-27T01:19:49.849Z,75.95
2022-11-27T01:20:54.876Z,75.84
2022-11-27T01:21:56.409Z,74.86
2022-11-27T01:22:57.872Z,75.27
2022-11-27T01:24:00.358Z,75.38
2022-11-27T01:25:01.823Z,75.04
2022-11-27T01:26:07.930Z,74.80
2022-11-27T01:27:09.722Z,74.98
2022-11-27T01:28:11.197Z,75.07
2022-11-27T01:29:12.710Z,75.69
2022-11-27T01:30:14.660Z,75.41
2022-11-27T01:31:22.525Z,76.20
2022-11-27T01:32:24.331Z,76.56
2022-11-27T01:33:25.804Z,76.03
2022-11-27T01:34:27.228Z,76.50
2022-11-27T01:35:28.740Z,76.42
2022-11-27T01:36:31.017Z,76.32
2022-11-27T01:37:32.766Z,76.21
2022-11-27T01:38:34.717Z,76.25
2022-11-27T01:39:36.166Z,76.69
2022-11-27T01:40:37.628Z,76.46
2022-11-27T01:41:39.957Z,76.66
2022-11-27T01:42:41.467Z,76.65
2022-11-27T01:43:52.969Z,76.64
2022-11-27T01:44:55.607Z,76.33
2022-11-27T01:45:57.051Z,76.71
2022-11-27T01:47:20.002Z,76.60
2022-11-27T01:48:21.472Z,75.98
2022-11-27T01:49:32.660Z,75.71
2022-11-27T01:50:38.399Z,76.01
2022-11-27T01:51:51.111Z,76.12
2022-11-27T01:52:58.154Z,76.07
2022-11-27T01:53:59.828Z,75.98
2022-11-27T01:55:10.451Z,75.98
2022-11-27T01:56:12.293Z,76.11
2022-11-27T01:57:19.557Z,76.64
2022-11-27T01:58:28.281Z,76.10
2022-11-27T01:59:30.437Z,75.85
2022-11-27T02:00:32.005Z,75.71
2022-11-27T02:01:33.586Z,75.25
2022-11-27T02:02:35.368Z,75.20
2022-11-27T02:03:37.531Z,75.55
2022-11-27T02:04:39.205Z,75.32
2022-11-27T02:05:40.937Z,75.73
2022-11-27T02:06:42.393Z,75.95
2022-11-27T02:07:45.146Z,75.37
2022-11-27T02:08:46.685Z,75.87
2022-11-27T02:09:48.255Z,75.65
2022-11-27T02:10:54.460Z,75.17
2022-11-27T02:12:01.684Z,75.55
2022-11-27T02:13:11.703Z,75.96
2022-11-27T02:14:31.371Z,75.73
2022-11-27T02:15:58.310Z,76.20
2022-11-27T02:17:20.170Z,76.31
2022-11-27T02:18:27.750Z,76.71
2022-11-27T02:20:06.618Z,76.72
2022-11-27T02:21:26.483Z,76.65
2022-11-27T02:22:52.751Z,76.84
2022-11-27T02:24:18.579Z,76.77
2022-11-27T02:25:42.690Z,76.07
2022-11-27T02:27:12.488Z,75.61
2022-11-27T02:28:32.940Z,75.91
2022-11-27T02:29:35.759Z,76.48
2022-11-27T02:30:43.873Z,76.50
2022-11-27T02:32:12.221Z,76.92
2022-11-27T02:33:20.525Z,76.56
2022-11-27T02:34:28.108Z,76.49
2022-11-27T02:35:38.464Z,76.74
2022-11-27T02:36:43.833Z,76.72
2022-11-27T02:37:47.833Z,76.67
2022-11-27T02:39:15.670Z,76.51
2022-11-27T02:40:42.578Z,76.24
2022-11-27T02:41:49.497Z,76.22
2022-11-27T02:42:59.754Z,75.87
2022-11-27T02:44:02.770Z,75.61
2022-11-27T02:45:17.365Z,75.62
2022-11-27T02:46:20.740Z,75.50
2022-11-27T02:47:23.042Z,75.81
2022-11-27T02:48:33.375Z,75.37
2022-11-27T02:49:36.970Z,75.69
2022-11-27T02:50:41.865Z,75.66
2022-11-27T02:51:52.236Z,76.31
2022-11-27T02:52:58.971Z,75.76
2022-11-27T02:54:05.518Z,75.74
2022-11-27T02:55:11.685Z,75.21
2022-11-27T02:56:16.489Z,75.43
2022-11-27T02:57:20.802Z,75.30
2022-11-27T02:58:25.916Z,75.55
2022-11-27T02:59:30.991Z,76.07
2022-11-27T03:00:35.340Z,75.77
2022-11-27T03:01:43.819Z,75.73
2022-11-27T03:02:57.853Z,76.20
2022-11-27T03:04:02.284Z,76.43
2022-11-27T03:05:07.889Z,76.52
2022-11-27T03:06:14.286Z,77.14
2022-11-27T03:07:22.491Z,77.22
2022-11-27T03:08:35.392Z,76.74
2022-11-27T03:09:43.520Z,76.44
2022-11-27T03:11:01.421Z,76.78
2022-11-27T03:12:07.370Z,76.42
2022-11-27T03:13:09.457Z,75.19
2022-11-27T03:14:12.391Z,75.99
2022-11-27T03:15:14.037Z,75.63
2022-11-27T03:16:38.523Z,75.43
2022-11-27T03:17:57.708Z,75.09
2022-11-27T03:19:18.262Z,75.36
2022-11-27T03:20:25.569Z,76.03
2022-11-27T03:21:36.443Z,76.25
2022-11-27T03:22:38.355Z,76.43
2022-11-27T03:23:39.794Z,76.29
2022-11-27T03:24:41.621Z,76.60
2022-11-27T03:25:43.224Z,76.51
2022-11-27T03:26:45.069Z,76.36
2022-11-27T03:27:54.256Z,76.71
2022-11-27T03:28:58.804Z,76.57
2022-11-27T03:30:03.383Z,76.88
2022-11-27T03:31:05.413Z,76.59
2022-11-27T03:32:07.205Z,76.48
2022-11-27T03:33:09.313Z,76.55
2022-11-27T03:34:11.747Z,76.17
2022-11-27T03:35:17.161Z,76.49
2022-11-27T03:36:20.350Z,76.60
2022-11-27T03:37:23.360Z,76.75
2022-11-27T03:38:25.170Z,76.52
2022-11-27T03:39:27.959Z,75.90
2022-11-27T03:40:39.868Z,75.90
2022-11-27T03:41:51.808Z,75.67
2022-11-27T03:43:10.142Z,76.01
2022-11-27T03:44:24.577Z,76.10
2022-11-27T03:45:34.926Z,76.38
2022-11-27T03:47:13.913Z,76.32
2022-11-27T03:48:35.723Z,76.54
2022-11-27T03:50:14.580Z,76.33
2022-11-27T03:51:27.971Z,76.43
2022-11-27T03:52:49.361Z,76.03
2022-11-27T03:54:04.707Z,76.23
2022-11-27T03:55:29.054Z,75.86
2022-11-27T03:56:30.417Z,75.78
2022-11-27T03:57:52.415Z,75.65
2022-11-27T03:59:15.409Z,76.09
2022-11-27T04:00:17.455Z,75.92
2022-11-27T04:01:23.511Z,75.86
2022-11-27T04:02:34.260Z,76.42
2022-11-27T04:03:36.606Z,76.41
2022-11-27T04:04:38.591Z,76.43
2022-11-27T04:05:40.769Z,76.25
2022-11-27T04:06:42.302Z,76.04
2022-11-27T04:07:44.470Z,76.48
2022-11-27T04:08:47.231Z,76.30
2022-11-27T04:09:48.708Z,75.92
2022-11-27T04:10:50.250Z,76.17
2022-11-27T04:11:51.690Z,75.20
2022-11-27T04:12:53.475Z,75.36
2022-11-27T04:13:54.938Z,75.07
2022-11-27T04:14:56.429Z,74.74
2022-11-27T04:16:01.947Z,74.91
2022-11-27T04:17:03.536Z,75.17
2022-11-27T04:18:05.608Z,74.99
2022-11-27T04:19:08.158Z,75.00
2022-11-27T04:20:11.097Z,74.81
2022-11-27T04:21:12.806Z,75.17
2022-11-27T04:22:14.491Z,75.13
2022-11-27T04:23:16.570Z,74.95
2022-11-27T04:24:18.010Z,75.37
2022-11-27T04:25:19.584Z,75.02
2022-11-27T04:26:21.068Z,75.06
2022-11-27T04:27:22.507Z,74.46
2022-11-27T04:28:24.285Z,75.41
2022-11-27T04:29:25.748Z,75.00
2022-11-27T04:30:27.187Z,74.91
2022-11-27T04:31:28.647Z,75.09
2022-11-27T04:32:30.240Z,74.89
2022-11-27T04:33:32.080Z,75.10
2022-11-27T04:34:33.611Z,75.44
2022-11-27T04:35:35.055Z,75.52
2022-11-27T04:36:39.452Z,75.02
2022-11-27T04:37:41.619Z,74.75
2022-11-27T04:38:43.025Z,74.62
2022-11-27T04:39:44.420Z,75.04
2022-11-27T04:40:45.902Z,74.75
2022-11-27T04:41:47.312Z,74.49
2022-11-27T04:42:48.822Z,74.11
2022-11-27T04:43:50.260Z,74.93
2022-11-27T04:44:51.650Z,74.65
2022-11-27T04:45:53.066Z,74.54
2022-11-27T04:46:54.644Z,74.47
2022-11-27T04:47:56.517Z,74.68
2022-11-27T04:48:57.997Z,74.84
2022-11-27T04:49:59.433Z,74.74
2022-11-27T04:51:00.843Z,75.10
2022-11-27T04:52:02.326Z,75.10
2022-11-27T04:53:03.945Z,75.20
2022-11-27T04:54:05.465Z,75.11
2022-11-27T04:55:07.531Z,74.95
2022-11-27T04:56:08.946Z,74.95
2022-11-27T04:57:10.700Z,74.98
2022-11-27T04:58:12.100Z,74.84
2022-11-27T04:59:14.931Z,75.14
2022-11-27T05:00:16.746Z,75.14
2022-11-27T05:01:18.537Z,74.98
2022-11-27T05:02:20.392Z,75.13
2022-11-27T05:03:21.919Z,74.99
2022-11-27T05:04:23.480Z,75.02
2022-11-27T05:05:24.904Z,74.74
2022-11-27T05:06:26.387Z,74.78
2022-11-27T05:07:28.173Z,74.83
2022-11-27T05:08:31.892Z,74.77
2022-11-27T05:09:33.312Z,74.70
2022-11-27T05:10:34.736Z,74.87
2022-11-27T05:11:36.219Z,75.10
2022-11-27T05:12:37.971Z,74.80
2022-11-27T05:13:39.951Z,75.22
2022-11-27T05:14:41.716Z,74.70
2022-11-27T05:15:43.822Z,75.15
2022-11-27T05:16:56.296Z,75.24
2022-11-27T05:17:58.049Z,74.93
2022-11-27T05:18:59.450Z,75.12
2022-11-27T05:20:00.857Z,74.46
2022-11-27T05:21:05.503Z,74.60
2022-11-27T05:22:07.254Z,74.27
2022-11-27T05:23:08.640Z,74.97
2022-11-27T05:24:10.630Z,75.24
2022-11-27T05:25:12.080Z,74.88
2022-11-27T05:26:13.459Z,75.12
2022-11-27T05:27:15.227Z,74.94
2022-11-27T05:28:16.669Z,75.10
2022-11-27T05:29:19.231Z,75.00
2022-11-27T05:30:20.634Z,75.20
2022-11-27T05:31:22.123Z,75.40
2022-11-27T05:32:23.586Z,75.10
2022-11-27T05:33:25.019Z,75.93
2022-11-27T05:34:26.559Z,75.44
2022-11-27T05:35:27.979Z,75.27
2022-11-27T05:36:30.273Z,75.39
2022-11-27T05:37:31.668Z,75.46
2022-11-27T05:38:33.098Z,75.13
2022-11-27T05:39:34.484Z,74.90
2022-11-27T05:40:35.953Z,74.76
2022-11-27T05:41:39.302Z,75.12
2022-11-27T05:42:41.007Z,75.23
2022-11-27T05:43:42.475Z,74.86
2022-11-27T05:44:43.864Z,75.01
2022-11-27T05:45:45.275Z,74.90
2022-11-27T05:46:47.055Z,74.81
2022-11-27T05:47:48.692Z,74.30
2022-11-27T05:48:50.436Z,74.33
2022-11-27T05:49:51.921Z,74.50
2022-11-27T05:50:53.380Z,74.63
2022-11-27T05:51:55.131Z,74.21
2022-11-27T05:52:56.521Z,73.48
2022-11-27T05:53:58.074Z,73.99
2022-11-27T05:54:59.478Z,74.01
2022-11-27T05:56:05.073Z,73.10
2022-11-27T05:57:06.827Z,74.10
2022-11-27T05:58:08.238Z,73.89
2022-11-27T05:59:10.806Z,73.71
2022-11-27T06:00:13.191Z,73.97
2022-11-27T06:01:16.475Z,74.30
2022-11-27T06:02:22.530Z,74.49
2022-11-27T06:03:25.728Z,75.16
2022-11-27T06:04:27.249Z,75.82
2022-11-27T06:05:28.777Z,75.75
2022-11-27T06:06:30.203Z,76.31
2022-11-27T06:07:32.085Z,76.19
2022-11-27T06:08:33.523Z,76.40
2022-11-27T06:09:37.770Z,76.23
2022-11-27T06:10:39.855Z,76.14
2022-11-27T06:11:42.879Z,76.50
2022-11-27T06:12:44.304Z,76.81
2022-11-27T06:13:46.941Z,76.52
2022-11-27T06:14:48.383Z,76.39
2022-11-27T06:15:54.219Z,77.00
2022-11-27T06:16:58.833Z,77.27
2022-11-27T06:18:00.643Z,77.46
2022-11-27T06:19:02.277Z,77.46
2022-11-27T06:20:06.597Z,77.46
2022-11-27T06:21:09.902Z,77.90
2022-11-27T06:22:11.519Z,78.27
2022-11-27T06:23:12.954Z,78.50
2022-11-27T06:24:14.652Z,78.61
2022-11-27T06:25:16.255Z,78.31
2022-11-27T06:26:20.545Z,78.86
2022-11-27T06:27:22.377Z,78.51
2022-11-27T06:28:23.858Z,78.33
2022-11-27T06:29:25.275Z,78.21
2022-11-27T06:30:26.841Z,78.31
2022-11-27T06:31:30.962Z,78.14
2022-11-27T06:32:32.901Z,77.78
2022-11-27T06:33:35.093Z,78.27
2022-11-27T06:34:36.510Z,78.15
2022-11-27T06:35:37.963Z,78.13
2022-11-27T06:36:42.782Z,78.19
2022-11-27T06:37:44.233Z,77.49
2022-11-27T06:38:46.325Z,78.50
2022-11-27T06:39:50.815Z,79.00
2022-11-27T06:40:52.314Z,79.28
2022-11-27T06:41:54.060Z,78.39
2022-11-27T06:42:55.512Z,79.11
2022-11-27T06:43:58.908Z,79.28
2022-11-27T06:45:00.363Z,78.89
2022-11-27T06:46:03.453Z,79.37
2022-11-27T06:47:05.381Z,79.50
2022-11-27T06:48:06.875Z,79.34
2022-11-27T06:49:09.531Z,79.01
2022-11-27T06:50:11.077Z,78.75
2022-11-27T06:51:16.662Z,79.09
2022-11-27T06:52:18.141Z,78.45
2022-11-27T06:53:19.713Z,79.08
2022-11-27T06:54:21.129Z,78.32
2022-11-27T06:55:22.580Z,78.64
2022-11-27T06:56:27.414Z,78.73
2022-11-27T06:57:28.816Z,79.35
2022-11-27T06:58:31.313Z,78.99
2022-11-27T06:59:32.888Z,79.34
2022-11-27T07:00:34.377Z,79.88
2022-11-27T07:01:36.317Z,79.40
2022-11-27T07:02:37.988Z,79.88
2022-11-27T07:03:39.625Z,79.61
2022-11-27T07:04:41.429Z,79.49
2022-11-27T07:05:42.997Z,79.99
2022-11-27T07:06:44.818Z,79.48
2022-11-27T07:07:46.261Z,79.19
2022-11-27T07:08:47.744Z,79.24
2022-11-27T07:09:49.170Z,78.40
2022-11-27T07:10:50.788Z,78.83
2022-11-27T07:11:52.646Z,78.57
2022-11-27T07:12:54.142Z,78.74
2022-11-27T07:14:02.070Z,78.74
2022-11-27T07:15:04.567Z,78.35
2022-11-27T07:16:09.008Z,77.89
2022-11-27T07:17:10.835Z,77.92
2022-11-27T07:18:12.378Z,77.83
2022-11-27T07:19:14.676Z,77.60
2022-11-27T07:20:16.229Z,77.31
2022-11-27T07:21:18.272Z,77.49
2022-11-27T07:22:19.670Z,77.44
2022-11-27T07:23:21.937Z,77.77
2022-11-27T07:24:23.472Z,77.47
2022-11-27T07:25:25.027Z,77.04
2022-11-27T07:26:29.244Z,77.18
2022-11-27T07:27:30.667Z,77.58
2022-11-27T07:28:32.111Z,77.06
2022-11-27T07:29:33.527Z,77.20
2022-11-27T07:30:34.990Z,76.95
2022-11-27T07:31:36.822Z,76.83
2022-11-27T07:32:38.305Z,76.74
2022-11-27T07:33:39.776Z,77.13
2022-11-27T07:34:41.363Z,77.34
2022-11-27T07:35:42.926Z,77.21
2022-11-27T07:36:44.779Z,77.45
2022-11-27T07:37:46.219Z,77.52
2022-11-27T07:38:47.988Z,77.17
2022-11-27T07:40:03.914Z,77.30
2022-11-27T07:41:06.471Z,77.77
2022-11-27T07:42:37.443Z,77.70
2022-11-27T07:43:31.163Z,77.65
2022-11-27T07:44:32.601Z,77.63
2022-11-27T07:45:34.072Z,77.28
2022-11-27T07:46:35.970Z,77.61
2022-11-27T07:47:38.494Z,77.00
2022-11-27T07:48:39.950Z,76.45
2022-11-27T07:49:41.533Z,76.99
2022-11-27T07:50:43.020Z,76.91
2022-11-27T07:51:45.150Z,77.45
2022-11-27T07:52:46.650Z,77.58
2022-11-27T07:53:51.586Z,77.18
2022-11-27T07:54:53.024Z,77.31
2022-11-27T07:55:54.478Z,77.72
2022-11-27T07:56:56.238Z,77.63
2022-11-27T07:57:57.660Z,77.66
2022-11-27T07:58:59.097Z,78.08
2022-11-27T08:00:00.562Z,78.41
2022-11-27T08:01:06.772Z,78.38
2022-11-27T08:02:12.548Z,78.56
2022-11-27T08:03:14.025Z,77.85
2022-11-27T08:04:15.492Z,78.39
2022-11-27T08:05:17.101Z,78.39
2022-11-27T08:06:24.336Z,78.99
2022-11-27T08:07:29.895Z,78.19
2022-11-27T08:08:31.430Z,78.63
2022-11-27T08:09:32.878Z,79.05
2022-11-27T08:10:38.854Z,78.72
2022-11-27T08:11:40.634Z,79.06
2022-11-27T08:12:42.076Z,79.20
2022-11-27T08:13:43.558Z,79.44
2022-11-27T08:14:45.115Z,79.62
2022-11-27T08:15:47.591Z,79.14
2022-11-27T08:16:49.050Z,79.50
2022-11-27T08:17:50.518Z,79.50
2022-11-27T08:18:52.796Z,79.45
2022-11-27T08:19:54.230Z,80.00
2022-11-27T08:20:56.078Z,79.50
2022-11-27T08:21:58.349Z,79.60
2022-11-27T08:23:02.913Z,80.21
2022-11-27T08:24:05.095Z,79.96
2022-11-27T08:25:07.038Z,80.40
2022-11-27T08:26:10.229Z,80.73
2022-11-27T08:27:11.746Z,80.42
2022-11-27T08:28:13.244Z,81.24
2022-11-27T08:29:14.663Z,80.55
2022-11-27T08:30:16.212Z,80.28
2022-11-27T08:31:18.443Z,81.39
2022-11-27T08:32:19.979Z,81.26
2022-11-27T08:33:21.412Z,81.27
2022-11-27T08:34:22.875Z,81.61
2022-11-27T08:35:24.416Z,81.04
2022-11-27T08:36:27.418Z,81.52
2022-11-27T08:37:28.857Z,81.78
2022-11-27T08:38:30.456Z,81.67
2022-11-27T08:39:31.943Z,81.20
2022-11-27T08:40:33.355Z,81.38
2022-11-27T08:41:35.232Z,81.63
2022-11-27T08:42:36.708Z,81.97
2022-11-27T08:43:38.212Z,81.11
2022-11-27T08:44:39.932Z,81.15
2022-11-27T08:45:41.700Z,81.52
2022-11-27T08:46:44.515Z,81.11
2022-11-27T08:47:45.953Z,81.92
2022-11-27T08:48:47.397Z,81.11
2022-11-27T08:49:48.911Z,81.09
2022-11-27T08:50:50.897Z,81.39
2022-11-27T08:51:52.402Z,81.11
2022-11-27T08:52:53.984Z,81.02
2022-11-27T08:53:55.446Z,80.90
2022-11-27T08:54:58.000Z,81.08
2022-11-27T08:56:12.245Z,82.13
2022-11-27T08:57:13.682Z,81.27
2022-11-27T08:58:15.225Z,80.73
2022-11-27T08:59:16.647Z,82.14
2022-11-27T09:00:21.381Z,81.22
2022-11-27T09:01:28.461Z,81.07
2022-11-27T09:02:29.982Z,81.03
2022-11-27T09:03:31.409Z,81.59
2022-11-27T09:04:32.917Z,81.13
2022-11-27T09:05:34.460Z,80.46
2022-11-27T09:06:36.607Z,80.68
2022-11-27T09:07:38.609Z,80.89
2022-11-27T09:08:41.782Z,81.15
2022-11-27T09:09:43.352Z,81.39
2022-11-27T09:10:44.792Z,80.21
2022-11-27T09:11:46.545Z,80.87
2022-11-27T09:12:51.124Z,80.51
2022-11-27T09:13:53.105Z,81.28
2022-11-27T09:14:54.563Z,81.76
2022-11-27T09:15:57.512Z,82.37
2022-11-27T09:16:59.318Z,81.69
2022-11-27T09:18:00.751Z,81.97
2022-11-27T09:19:02.270Z,82.09
2022-11-27T09:20:05.094Z,81.72
2022-11-27T09:21:09.442Z,81.65
2022-11-27T09:22:10.990Z,81.80
2022-11-27T09:23:14.533Z,81.72
2022-11-27T09:24:16.221Z,81.25
2022-11-27T09:25:17.725Z,82.50
2022-11-27T09:26:19.648Z,82.53
2022-11-27T09:27:21.106Z,82.86
2022-11-27T09:28:25.595Z,82.84
2022-11-27T09:29:29.701Z,83.48
2022-11-27T09:30:31.109Z,82.95
2022-11-27T09:31:32.941Z,83.10
2022-11-27T09:32:34.745Z,82.57
2022-11-27T09:33:38.371Z,82.53
2022-11-27T09:34:40.062Z,83.05
2022-11-27T09:35:41.802Z,82.88
2022-11-27T09:36:43.623Z,82.99
2022-11-27T09:37:45.113Z,82.60
2022-11-27T09:38:47.410Z,83.13
2022-11-27T09:39:48.909Z,83.10
2022-11-27T09:41:02.992Z,81.91
2022-11-27T09:42:06.628Z,81.63
2022-11-27T09:43:11.467Z,81.78
2022-11-27T09:44:30.925Z,81.75
2022-11-27T09:45:33.525Z,81.48
2022-11-27T09:46:39.132Z,81.88
2022-11-27T09:47:50.317Z,81.82
2022-11-27T09:48:53.306Z,81.83
2022-11-27T09:49:56.895Z,83.07
2022-11-27T09:51:02.497Z,82.90
2022-11-27T09:52:26.211Z,83.72
2022-11-27T09:53:47.189Z,83.82
2022-11-27T09:55:05.401Z,83.55
2022-11-27T09:56:12.445Z,83.11
2022-11-27T09:57:17.015Z,83.59
2022-11-27T09:58:45.309Z,84.19
2022-11-27T09:59:51.841Z,83.55
2022-11-27T10:00:53.358Z,82.88
2022-11-27T10:01:55.183Z,83.32
2022-11-27T10:02:56.974Z,83.01
2022-11-27T10:04:01.383Z,83.32
2022-11-27T10:05:17.884Z,83.46
2022-11-27T10:06:43.625Z,83.07
2022-11-27T10:08:06.948Z,83.14
2022-11-27T10:09:08.677Z,83.15
2022-11-27T10:10:57.023Z,83.84
2022-11-27T10:12:01.782Z,83.77
2022-11-27T10:13:26.474Z,83.99
2022-11-27T10:14:35.035Z,84.66
2022-11-27T10:15:47.865Z,83.96
2022-11-27T10:17:05.391Z,84.36
2022-11-27T10:18:17.601Z,83.76
2022-11-27T10:19:21.900Z,84.63
2022-11-27T10:20:44.666Z,84.33
2022-11-27T10:22:07.803Z,84.64
2022-11-27T10:23:24.535Z,83.77
2022-11-27T10:24:48.377Z,83.12
2022-11-27T10:26:10.971Z,83.08
2022-11-27T10:27:22.818Z,82.35
2022-11-27T10:28:36.549Z,82.50
2022-11-27T10:29:47.312Z,82.07
2022-11-27T10:31:09.655Z,82.01
2022-11-27T10:32:53.660Z,81.44
2022-11-27T10:33:49.206Z,82.08
2022-11-27T10:34:56.660Z,82.34
2022-11-27T10:36:00.239Z,82.25
2022-11-27T10:37:06.729Z,82.21
2022-11-27T10:38:22.249Z,82.81
2022-11-27T10:39:41.289Z,83.36
2022-11-27T10:41:03.741Z,83.33
2022-11-27T10:42:11.527Z,83.26
2022-11-27T10:43:18.680Z,82.86
2022-11-27T10:44:39.035Z,82.63
2022-11-27T10:45:57.671Z,84.23
2022-11-27T10:47:05.980Z,85.10
2022-11-27T10:48:07.423Z,85.37
2022-11-27T10:49:10.182Z,84.82
2022-11-27T10:50:16.854Z,84.08
2022-11-27T10:51:29.078Z,84.66
2022-11-27T10:52:30.869Z,85.93
2022-11-27T10:53:37.264Z,85.29
2022-11-27T10:54:39.854Z,83.67
2022-11-27T10:56:03.565Z,83.43
2022-11-27T10:57:58.657Z,82.83
2022-11-27T10:59:09.222Z,82.04
2022-11-27T11:00:16.271Z,82.63
2022-11-27T11:01:20.775Z,82.13
2022-11-27T11:02:31.739Z,82.57
2022-11-27T11:03:34.212Z,82.99
2022-11-27T11:04:38.349Z,82.84
2022-11-27T11:06:12.164Z,82.94
2022-11-27T11:07:02.178Z,82.89
2022-11-27T11:08:06.589Z,83.07
2022-11-27T11:09:17.524Z,82.19
2022-11-27T11:10:29.430Z,82.47
2022-11-27T11:11:30.916Z,81.63
2022-11-27T11:12:33.154Z,81.30
2022-11-27T11:13:46.046Z,81.61
2022-11-27T11:14:59.245Z,81.26
2022-11-27T11:16:24.343Z,81.48
2022-11-27T11:17:38.614Z,82.21
2022-11-27T11:18:51.259Z,83.14
2022-11-27T11:19:53.429Z,83.76
2022-11-27T11:20:58.441Z,83.49
2022-11-27T11:22:04.531Z,83.06
2022-11-27T11:23:06.587Z,83.33
2022-11-27T11:24:21.797Z,82.77
2022-11-27T11:25:23.361Z,82.64
2022-11-27T11:26:31.931Z,82.83
2022-11-27T11:27:33.406Z,82.63
2022-11-27T11:28:46.688Z,82.69
2022-11-27T11:30:01.722Z,82.68
2022-11-27T11:31:09.463Z,82.73
2022-11-27T11:32:16.651Z,82.41
2022-11-27T11:33:18.229Z,82.64
2022-11-27T11:34:27.142Z,82.25
2022-11-27T11:35:36.542Z,82.51
2022-11-27T11:36:38.481Z,81.81
2022-11-27T11:37:45.085Z,81.66
2022-11-27T11:38:47.956Z,82.18
2022-11-27T11:40:21.739Z,81.20
2022-11-27T11:41:24.262Z,81.60
2022-11-27T11:42:28.434Z,81.26
2022-11-27T11:43:33.626Z,81.78
2022-11-27T11:44:39.938Z,81.45
2022-11-27T11:45:48.773Z,81.42
2022-11-27T11:46:54.838Z,81.22
2022-11-27T11:47:59.287Z,80.83
2022-11-27T11:49:02.621Z,81.38
2022-11-27T11:50:04.543Z,81.01
2022-11-27T11:51:18.307Z,82.57
2022-11-27T11:52:35.134Z,81.92
2022-11-27T11:53:42.777Z,81.62
2022-11-27T11:54:59.494Z,81.81
2022-11-27T11:56:19.342Z,81.94
2022-11-27T11:57:45.948Z,82.19
2022-11-27T11:58:58.634Z,81.65
2022-11-27T12:00:12.921Z,81.92
2022-11-27T12:01:27.178Z,81.98
2022-11-27T12:02:54.427Z,82.68
2022-11-27T12:04:08.313Z,83.08
2022-11-27T12:05:29.410Z,82.64
2022-11-27T12:06:59.635Z,82.37
2022-11-27T12:08:36.313Z,82.21
2022-11-27T12:10:05.576Z,82.10
2022-11-27T12:11:16.968Z,82.34
2022-11-27T12:12:21.511Z,82.03
2022-11-27T12:13:44.198Z,81.69
2022-11-27T12:15:15.122Z,81.33
2022-11-27T12:16:46.281Z,80.62
2022-11-27T12:18:24.781Z,81.25
2022-11-27T12:19:44.550Z,81.40
2022-11-27T12:21:12.207Z,80.59
2022-11-27T12:22:25.004Z,80.42
2022-11-27T12:24:00.635Z,79.64
2022-11-27T12:25:26.041Z,79.59
2022-11-27T12:26:56.449Z,79.79
2022-11-27T12:29:00.942Z,79.28
2022-11-27T12:30:37.881Z,79.80
2022-11-27T12:32:14.924Z,80.29
2022-11-27T12:33:28.993Z,81.12
2022-11-27T12:35:04.463Z,81.54
2022-11-27T12:36:46.300Z,81.53
2022-11-27T12:38:28.132Z,81.60
2022-11-27T12:39:38.938Z,81.43
2022-11-27T12:41:02.024Z,81.03
2022-11-27T12:42:22.469Z,81.30
2022-11-27T12:43:26.087Z,81.28
2022-11-27T12:44:47.436Z,81.11
2022-11-27T12:46:07.209Z,81.71
2022-11-27T12:47:20.593Z,81.98
2022-11-27T12:48:31.960Z,82.06
2022-11-27T12:49:57.324Z,81.41
2022-11-27T12:51:06.770Z,81.57
2022-11-27T12:52:18.604Z,81.21
2022-11-27T12:53:37.810Z,81.15
2022-11-27T12:55:15.141Z,81.30
2022-11-27T12:56:28.349Z,81.45
2022-11-27T12:58:01.889Z,80.78
2022-11-27T12:59:34.082Z,80.72
2022-11-27T13:00:42.541Z,79.78
2022-11-27T13:01:56.355Z,79.67
2022-11-27T13:03:44.075Z,79.56
2022-11-27T13:04:54.581Z,79.65
2022-11-27T13:06:02.910Z,79.93
2022-11-27T13:07:21.237Z,79.95
2022-11-27T13:08:53.507Z,80.63
2022-11-27T13:10:05.789Z,80.75
2022-11-27T13:11:14.026Z,79.81
2022-11-27T13:12:29.409Z,79.72
2022-11-27T13:13:35.894Z,79.27
2022-11-27T13:14:38.771Z,79.26
2022-11-27T13:15:46.222Z,79.42
2022-11-27T13:16:53.689Z,79.63
2022-11-27T13:18:20.047Z,79.16
2022-11-27T13:19:39.776Z,79.14
2022-11-27T13:20:41.927Z,79.69
2022-11-27T13:21:46.628Z,79.60
2022-11-27T13:22:54.610Z,80.20
2022-11-27T13:24:00.903Z,79.83
2022-11-27T13:25:03.605Z,80.42
2022-11-27T13:26:12.316Z,79.84
2022-11-27T13:27:17.560Z,79.98
2022-11-27T13:28:43.297Z,80.00
2022-11-27T13:30:24.787Z,79.72
2022-11-27T13:31:30.783Z,79.46
2022-11-27T13:32:42.020Z,79.57
2022-11-27T13:33:45.793Z,79.48
2022-11-27T13:34:48.537Z,79.50
2022-11-27T13:35:50.187Z,79.12
2022-11-27T13:36:56.891Z,79.42
2022-11-27T13:38:12.625Z,79.27
2022-11-27T13:39:27.662Z,79.98
2022-11-27T13:40:39.266Z,80.10
2022-11-27T13:41:41.200Z,79.89
2022-11-27T13:42:55.413Z,79.65
2022-11-27T13:43:57.625Z,79.61
2022-11-27T13:45:04.502Z,79.68
2022-11-27T13:46:16.155Z,80.03
2022-11-27T13:47:20.440Z,80.16
2022-11-27T13:48:34.711Z,79.44
2022-11-27T13:49:37.954Z,78.88
2022-11-27T13:50:46.545Z,78.90
2022-11-27T13:51:48.086Z,79.39
2022-11-27T13:53:05.949Z,79.18
2022-11-27T13:54:08.768Z,79.35
2022-11-27T13:55:10.263Z,78.99
2022-11-27T13:56:12.901Z,79.48
2022-11-27T13:57:18.838Z,79.30
2022-11-27T13:58:31.112Z,79.17
2022-11-27T13:59:36.451Z,78.80
2022-11-27T14:00:44.088Z,78.70
2022-11-27T14:02:15.604Z,78.83
2022-11-27T14:03:41.703Z,78.59
2022-11-27T14:04:55.858Z,78.75
2022-11-27T14:05:58.039Z,78.64
2022-11-27T14:07:21.475Z,78.53
2022-11-27T14:08:34.570Z,78.09
2022-11-27T14:09:44.498Z,77.89
2022-11-27T14:10:52.856Z,78.47
2022-11-27T14:11:54.397Z,77.97
2022-11-27T14:13:08.775Z,78.09
2022-11-27T14:14:23.941Z,78.12
2022-11-27T14:15:33.792Z,78.23
2022-11-27T14:16:36.938Z,78.26
2022-11-27T14:17:44.109Z,78.28
2022-11-27T14:18:52.196Z,77.90
2022-11-27T14:20:05.130Z,78.18
2022-11-27T14:21:06.646Z,78.00